Time;durP1;ratioP1;P1;durP2;ratioP2;P2;SDS_P1;SDS_P2;PMS_P1;PMS_P2;Temp;Humidity;BMP_temperature;BMP_pressure;BME280_temperature;BME280_humidity;BME280_pressure;Samples;Min_cycle;Max_cycle;Signal;HPM_P1;HPM_P2
2022/03/16 00:00:29;;;;;;;5.95;3.08;;;10.70;42.70;;;;;;5074066;28;20032;-75
2022/03/16 00:02:55;;;;;;;6.55;3.20;;;10.60;42.50;;;;;;5090300;28;20036;-75
2022/03/16 00:05:26;;;;;;;6.60;3.17;;;10.70;42.50;;;;;;5095183;28;20056;-75
2022/03/16 00:07:54;;;;;;;7.50;3.58;;;10.70;42.50;;;;;;5094708;28;20154;-75
2022/03/16 00:10:23;;;;;;;7.10;3.70;;;10.70;42.50;;;;;;5091685;28;20035;-82
2022/03/16 00:12:49;;;;;;;6.45;3.40;;;10.70;42.60;;;;;;5075162;28;20465;-75
2022/03/16 00:15:20;;;;;;;6.93;3.38;;;10.70;42.80;;;;;;5083940;28;20061;-75
2022/03/16 00:17:46;;;;;;;7.88;3.22;;;10.70;43.10;;;;;;5095541;28;20036;-75
2022/03/16 00:20:15;;;;;;;7.10;3.83;;;10.70;43.00;;;;;;5077527;28;20047;-75
2022/03/16 00:22:47;;;;;;;8.27;3.80;;;10.70;42.90;;;;;;5077671;28;20094;-81
2022/03/16 00:25:13;;;;;;;6.82;3.15;;;10.70;43.00;;;;;;5074492;28;20036;-81
2022/03/16 00:27:39;;;;;;;6.88;3.20;;;10.70;43.10;;;;;;5074518;28;20115;-78
2022/03/16 00:30:08;;;;;;;6.10;3.20;;;10.70;43.30;;;;;;5080793;28;20040;-75
2022/03/16 00:32:36;;;;;;;6.85;3.47;;;10.70;42.90;;;;;;5094926;28;20036;-75
2022/03/16 00:35:02;;;;;;;8.63;3.63;;;10.60;43.40;;;;;;5094986;28;20039;-75
2022/03/16 00:37:39;;;;;;;;;;;10.60;43.40;;;;;;5094953;28;20050;-81
2022/03/16 00:40:09;;;;;;;7.73;3.37;;;10.60;43.20;;;;;;5090580;28;19927;-75
2022/03/16 00:42:35;;;;;;;8.68;3.58;;;10.60;43.30;;;;;;5076060;28;20053;-81
2022/03/16 00:45:01;;;;;;;8.73;3.42;;;10.60;43.60;;;;;;5079691;28;20094;-81
2022/03/16 00:47:29;;;;;;;6.88;3.38;;;10.60;43.80;;;;;;5077566;28;20072;-75
2022/03/16 00:49:58;;;;;;;7.47;3.67;;;10.60;43.90;;;;;;5080811;28;20045;-75
2022/03/16 00:52:30;;;;;;;6.50;3.45;;;10.60;44.10;;;;;;5074145;28;20063;-75
2022/03/16 00:55:02;;;;;;;8.35;4.15;;;10.60;44.10;;;;;;5074170;28;20058;-75
2022/03/16 00:57:28;;;;;;;7.40;3.53;;;10.50;44.00;;;;;;5040696;28;20034;-81
2022/03/16 00:59:54;;;;;;;;;;;10.50;43.50;;;;;;5076879;28;21262;-75
2022/03/16 01:02:25;;;;;;;6.90;3.55;;;10.50;43.80;;;;;;5093577;28;19916;-80
2022/03/16 01:04:59;;;;;;;7.72;4.20;;;10.50;43.90;;;;;;5077892;28;20424;-75
2022/03/16 01:07:26;;;;;;;7.60;3.88;;;10.50;44.30;;;;;;5093942;28;20051;-75
2022/03/16 01:09:53;;;;;;;6.45;3.53;;;10.50;44.30;;;;;;5074440;28;20044;-81
2022/03/16 01:12:20;;;;;;;;;;;10.50;44.40;;;;;;5075723;28;20036;-81
2022/03/16 01:14:46;;;;;;;;;;;10.40;44.10;;;;;;5074505;28;19920;-81
2022/03/16 01:17:13;;;;;;;8.20;3.88;;;10.50;43.40;;;;;;5095015;28;19920;-77
2022/03/16 01:19:43;;;;;;;6.82;3.60;;;10.50;44.30;;;;;;5092449;28;20048;-75
2022/03/16 01:22:29;;;;;;;7.00;3.53;;;10.50;44.50;;;;;;5094809;28;20036;-82
2022/03/16 01:25:10;;;;;;;7.50;3.90;;;10.40;44.60;;;;;;5077325;28;20109;-81
2022/03/16 01:27:36;;;;;;;9.43;4.10;;;10.40;44.70;;;;;;5093301;28;20469;-75
2022/03/16 01:30:04;;;;;;;7.20;3.72;;;10.40;44.90;;;;;;5093123;28;20059;-75
2022/03/16 01:32:33;;;;;;;7.53;4.00;;;10.40;44.70;;;;;;5093419;28;20370;-82
2022/03/16 01:35:01;;;;;;;7.97;4.18;;;10.40;44.20;;;;;;5077674;28;20036;-75
2022/03/16 01:37:30;;;;;;;;;;;10.40;44.70;;;;;;5091663;28;20086;-78
2022/03/16 01:39:57;;;;;;;8.43;3.80;;;10.40;44.30;;;;;;5057412;28;20285;-82
2022/03/16 01:42:23;;;;;;;7.10;3.85;;;10.40;44.60;;;;;;5073320;28;20435;-82
2022/03/16 01:45:21;;;;;;;7.53;4.20;;;10.30;44.80;;;;;;5073665;28;20040;-81
2022/03/16 01:48:12;;;;;;;10.05;4.63;;;10.30;45.00;;;;;;5073640;28;20033;-81
2022/03/16 01:50:38;;;;;;;8.57;4.28;;;10.30;45.10;;;;;;5056128;28;20123;-75
2022/03/16 01:53:05;;;;;;;6.70;3.67;;;10.20;45.20;;;;;;5073631;28;20119;-77
2022/03/16 01:55:31;;;;;;;;;;;10.20;45.20;;;;;;5073304;28;20044;-81
2022/03/16 01:57:58;;;;;;;7.68;4.22;;;10.20;44.40;;;;;;5073295;28;19936;-81
2022/03/16 02:00:26;;;;;;;8.88;4.90;;;10.20;45.50;;;;;;5091279;28;20040;-80
2022/03/16 02:02:52;;;;;;;8.30;3.97;;;10.10;46.50;;;;;;5093662;28;20098;-75
2022/03/16 02:05:19;;;;;;;7.95;4.38;;;10.10;45.80;;;;;;5093717;28;20032;-75
2022/03/16 02:07:46;;;;;;;7.90;4.32;;;10.10;45.90;;;;;;5092630;28;20109;-73
2022/03/16 02:10:18;;;;;;;7.22;4.35;;;10.00;46.00;;;;;;5075337;28;20032;-79
2022/03/16 02:13:09;;;;;;;7.95;4.00;;;10.00;45.90;;;;;;5093015;28;20099;-75
2022/03/16 02:15:35;;;;;;;9.55;4.22;;;10.00;46.40;;;;;;5090780;28;20043;-81
2022/03/16 02:18:01;;;;;;;8.98;4.15;;;10.00;46.60;;;;;;5093098;28;20034;-75
2022/03/16 02:20:28;;;;;;;8.05;4.18;;;10.00;46.80;;;;;;5092505;28;20040;-80
2022/03/16 02:23:02;;;;;;;;;;;10.00;46.90;;;;;;5076610;28;20119;-75
2022/03/16 02:25:30;;;;;;;8.40;4.18;;;9.90;46.60;;;;;;5091872;28;19923;-75
2022/03/16 02:28:09;;;;;;;8.02;4.35;;;9.90;47.00;;;;;;5092660;28;20036;-75
2022/03/16 02:30:35;;;;;;;9.30;3.90;;;9.80;47.10;;;;;;5091424;28;20392;-81
2022/03/16 02:33:04;;;;;;;8.90;3.90;;;9.80;47.20;;;;;;5092800;28;20046;-81
2022/03/16 02:35:31;;;;;;;8.05;4.50;;;9.80;47.40;;;;;;5092334;28;20037;-81
2022/03/16 02:37:59;;;;;;;7.93;4.05;;;9.80;47.50;;;;;;5092752;28;20187;-81
2022/03/16 02:40:30;;;;;;;8.13;3.72;;;9.80;47.40;;;;;;5092040;28;20043;-75
2022/03/16 02:42:58;;;;;;;8.38;3.97;;;9.70;47.60;;;;;;5093446;28;20396;-81
2022/03/16 02:45:26;;;;;;;7.22;3.72;;;9.70;47.60;;;;;;5093235;28;20442;-75
2022/03/16 02:48:01;;;;;;;6.82;3.55;;;9.70;47.80;;;;;;5076212;28;20040;-81
2022/03/16 02:50:41;;;;;;;8.98;4.05;;;9.70;47.80;;;;;;5077291;28;20120;-75
2022/03/16 02:53:07;;;;;;;10.43;4.38;;;9.70;48.10;;;;;;5075398;28;20123;-75
2022/03/16 02:55:34;;;;;;;6.78;4.03;;;9.70;48.20;;;;;;5092476;28;20520;-75
2022/03/16 02:58:01;;;;;;;9.07;3.88;;;9.60;48.30;;;;;;5093573;28;20031;-75
2022/03/16 03:00:29;;;;;;;8.23;4.03;;;9.60;48.30;;;;;;5092925;28;20085;-80
2022/03/16 03:02:55;;;;;;;9.23;4.28;;;9.60;48.50;;;;;;5090768;28;20500;-76
2022/03/16 03:05:22;;;;;;;8.30;4.22;;;9.60;48.60;;;;;;5091562;28;20089;-75
2022/03/16 03:07:50;;;;;;;7.20;3.83;;;9.50;48.70;;;;;;5074941;28;20070;-75
2022/03/16 03:10:19;;;;;;;8.40;4.22;;;9.50;48.90;;;;;;5091632;28;20024;-80
2022/03/16 03:12:46;;;;;;;7.72;3.90;;;9.50;48.20;;;;;;5091560;28;20103;-78
2022/03/16 03:15:18;;;;;;;10.10;4.20;;;9.50;48.60;;;;;;5091643;28;20043;-75
2022/03/16 03:17:45;;;;;;;9.60;4.40;;;9.50;48.50;;;;;;5071121;28;20032;-75
2022/03/16 03:20:13;;;;;;;13.77;5.07;;;9.50;48.60;;;;;;5071303;28;20039;-75
2022/03/16 03:22:40;;;;;;;8.75;4.15;;;9.50;48.10;;;;;;5088186;28;20396;-75
2022/03/16 03:25:15;;;;;;;10.90;3.92;;;9.50;48.40;;;;;;5070944;28;20132;-81
2022/03/16 03:27:44;;;;;;;7.00;3.53;;;9.50;48.50;;;;;;5071532;28;20041;-75
2022/03/16 03:30:16;;;;;;;7.43;4.40;;;9.50;48.50;;;;;;5072597;28;20036;-75
2022/03/16 03:33:03;;;;;;;9.07;4.43;;;9.40;48.60;;;;;;5088679;28;20033;-81
2022/03/16 03:35:32;;;;;;;7.88;3.70;;;9.40;48.60;;;;;;5091503;28;20039;-80
2022/03/16 03:37:59;;;;;;;8.48;3.88;;;9.30;48.60;;;;;;5091762;28;20150;-81
2022/03/16 03:40:25;;;;;;;8.00;4.13;;;9.30;49.10;;;;;;5074038;28;22713;-75
2022/03/16 03:42:51;;;;;;;;;;;9.30;49.30;;;;;;5092199;28;20388;-81
2022/03/16 03:45:26;;;;;;;8.75;4.25;;;9.20;48.90;;;;;;5074348;28;20434;-75
2022/03/16 03:47:52;;;;;;;8.95;4.43;;;9.20;49.20;;;;;;5092144;28;20040;-81
2022/03/16 03:50:20;;;;;;;7.47;3.88;;;9.20;49.40;;;;;;5074098;28;20051;-75
2022/03/16 03:52:48;;;;;;;10.65;4.57;;;9.20;49.30;;;;;;5074103;28;20032;-74
2022/03/16 03:55:18;;;;;;;7.70;4.25;;;9.20;49.40;;;;;;5090826;28;20036;-80
2022/03/16 03:57:44;;;;;;;8.32;4.68;;;9.30;49.50;;;;;;5092981;28;20032;-80
2022/03/16 04:00:14;;;;;;;8.85;4.35;;;9.20;49.40;;;;;;5091927;28;20115;-79
2022/03/16 04:03:06;;;;;;;8.10;4.40;;;9.20;49.40;;;;;;5091752;28;20042;-80
2022/03/16 04:05:40;;;;;;;9.32;5.10;;;9.10;49.50;;;;;;5091163;28;20059;-81
2022/03/16 04:08:09;;;;;;;12.30;4.90;;;9.10;49.90;;;;;;5057444;28;20052;-75
2022/03/16 04:10:36;;;;;;;10.00;4.90;;;9.10;49.70;;;;;;5090748;28;20064;-77
2022/03/16 04:13:04;;;;;;;10.18;5.55;;;9.10;49.80;;;;;;5091526;28;20031;-81
2022/03/16 04:15:40;;;;;;;9.52;4.53;;;9.10;49.80;;;;;;5091190;28;20433;-75
2022/03/16 04:18:06;;;;;;;9.00;4.15;;;9.00;49.80;;;;;;5075409;28;20036;-81
2022/03/16 04:20:33;;;;;;;8.38;4.43;;;8.90;49.90;;;;;;5088673;28;20040;-81
2022/03/16 04:22:59;;;;;;;9.35;4.68;;;8.80;49.90;;;;;;5091771;28;20435;-82
2022/03/16 04:26:03;;;;;;;8.77;4.60;;;8.80;50.10;;;;;;5090972;28;20136;-75
2022/03/16 04:28:32;;;;;;;10.82;4.88;;;8.70;50.10;;;;;;4993625;28;20430;-82
2022/03/16 04:31:01;;;;;;;8.77;4.70;;;8.60;50.20;;;;;;4990284;28;20139;-81
2022/03/16 04:33:28;;;;;;;12.43;5.18;;;8.60;49.80;;;;;;4993192;28;20097;-75
2022/03/16 04:35:57;;;;;;;9.93;5.00;;;8.60;50.30;;;;;;4996024;28;20049;-82
2022/03/16 04:38:33;;;;;;;9.85;5.40;;;8.60;50.30;;;;;;4997010;28;20108;-75
2022/03/16 04:41:18;;;;;;;13.50;5.35;;;8.50;50.30;;;;;;5013754;28;20480;-75
2022/03/16 04:43:46;;;;;;;8.95;5.28;;;8.60;50.50;;;;;;5010624;28;20049;-82
2022/03/16 04:46:20;;;;;;;9.43;5.10;;;8.60;50.60;;;;;;4993883;28;20039;-78
2022/03/16 04:48:47;;;;;;;10.48;5.28;;;8.60;50.40;;;;;;5011826;28;20257;-75
2022/03/16 04:51:18;;;;;;;11.68;5.55;;;8.60;50.30;;;;;;4996768;28;20509;-81
2022/03/16 04:53:47;;;;;;;14.30;5.75;;;8.60;50.40;;;;;;5003617;28;20052;-75
2022/03/16 04:56:15;;;;;;;9.93;5.30;;;8.50;51.30;;;;;;5012998;28;20030;-75
2022/03/16 04:58:49;;;;;;;16.17;5.78;;;8.40;50.90;;;;;;5083890;28;20056;-75
2022/03/16 05:01:15;;;;;;;19.67;7.35;;;8.40;50.90;;;;;;5095116;28;20032;-81
2022/03/16 05:03:41;;;;;;;13.63;6.82;;;8.30;51.00;;;;;;5094133;28;20036;-82
2022/03/16 05:06:10;;;;;;;17.15;9.00;;;8.30;51.00;;;;;;5093809;28;20036;-82
2022/03/16 05:08:37;;;;;;;21.38;10.43;;;8.30;51.20;;;;;;5094114;28;20059;-82
2022/03/16 05:11:05;;;;;;;18.25;9.48;;;8.20;51.40;;;;;;5093946;28;20510;-82
2022/03/16 05:13:38;;;;;;;13.38;7.50;;;8.10;51.40;;;;;;5059425;28;20037;-82
2022/03/16 05:16:07;;;;;;;11.77;6.65;;;8.10;51.50;;;;;;5074931;28;20474;-82
2022/03/16 05:18:40;;;;;;;23.10;10.30;;;8.10;51.60;;;;;;5088590;28;20052;-83
2022/03/16 05:21:17;;;;;;;239.85;82.30;;;8.00;51.20;;;;;;5093647;28;20048;-82
2022/03/16 05:23:43;;;;;;;31.48;16.83;;;8.10;51.70;;;;;;5078431;28;20064;-75
2022/03/16 05:26:09;;;;;;;25.17;12.23;;;8.10;51.70;;;;;;5073455;28;20490;-81
2022/03/16 05:28:38;;;;;;;;;;;8.00;51.70;;;;;;5075983;28;20051;-81
2022/03/16 05:31:06;;;;;;;33.40;18.67;;;8.00;51.20;;;;;;5073485;28;19955;-82
2022/03/16 05:34:10;;;;;;;20.17;12.13;;;8.00;51.50;;;;;;5090393;28;20405;-75
2022/03/16 05:36:45;;;;;;;20.67;11.45;;;7.90;51.60;;;;;;5093458;28;20036;-81
2022/03/16 05:39:11;;;;;;;21.40;8.30;;;7.90;51.90;;;;;;5091800;28;20489;-75
2022/03/16 05:41:40;;;;;;;15.32;8.00;;;7.90;52.00;;;;;;5071713;28;20029;-82
2022/03/16 05:44:10;;;;;;;28.83;16.60;;;7.90;52.00;;;;;;5074626;28;20044;-75
2022/03/16 05:46:36;;;;;;;20.55;11.57;;;7.90;52.10;;;;;;5073393;28;20052;-75
2022/03/16 05:49:07;;;;;;;12.00;6.47;;;7.90;52.20;;;;;;5090681;28;20111;-75
2022/03/16 05:51:34;;;;;;;11.50;5.53;;;7.90;53.00;;;;;;5092713;28;20036;-82
2022/03/16 05:54:03;;;;;;;13.45;6.13;;;7.90;52.20;;;;;;5094801;28;20059;-81
2022/03/16 05:56:31;;;;;;;14.48;6.78;;;7.90;52.10;;;;;;5093102;28;20460;-81
2022/03/16 05:59:18;;;;;;;21.75;9.30;;;7.90;52.00;;;;;;5093645;28;20054;-75
2022/03/16 06:02:09;;;;;;;15.73;7.70;;;8.00;51.30;;;;;;5091750;28;20048;-81
2022/03/16 06:04:36;;;;;;;39.28;16.27;;;8.00;51.90;;;;;;5094552;28;20040;-82
2022/03/16 06:07:09;;;;;;;24.80;12.45;;;8.00;51.70;;;;;;5093155;28;20491;-82
2022/03/16 06:09:36;;;;;;;18.10;9.00;;;8.10;51.60;;;;;;5082666;28;20047;-82
2022/03/16 06:12:04;;;;;;;24.98;13.25;;;8.10;51.40;;;;;;5072578;28;20056;-81
2022/03/16 06:14:34;;;;;;;24.42;13.15;;;8.20;51.40;;;;;;5073172;28;20485;-75
2022/03/16 06:17:00;;;;;;;24.70;11.40;;;8.30;51.40;;;;;;5072342;28;20040;-82
2022/03/16 06:19:26;;;;;;;26.73;12.77;;;8.40;51.40;;;;;;5090816;28;20441;-75
2022/03/16 06:22:15;;;;;;;19.48;12.05;;;8.40;51.20;;;;;;5075643;28;20345;-82
2022/03/16 06:24:43;;;;;;;22.83;9.90;;;8.50;51.20;;;;;;5093011;28;20029;-75
2022/03/16 06:27:17;;;;;;;15.18;8.52;;;8.60;51.20;;;;;;5092535;28;20388;-75
2022/03/16 06:29:46;;;;;;;16.95;7.30;;;8.60;51.20;;;;;;5074403;28;20080;-75
2022/03/16 06:32:12;;;;;;;13.82;6.97;;;8.70;51.20;;;;;;5072302;28;20028;-75
2022/03/16 06:34:50;;;;;;;17.95;11.02;;;8.80;51.10;;;;;;5090532;28;20124;-74
2022/03/16 06:37:17;;;;;;;19.17;12.35;;;8.80;51.10;;;;;;5091967;28;20032;-81
2022/03/16 06:39:43;;;;;;;20.75;10.77;;;8.90;51.40;;;;;;5080102;28;20025;-75
2022/03/16 06:42:15;;;;;;;21.05;11.13;;;9.00;51.30;;;;;;5073108;28;20036;-81
2022/03/16 06:44:42;;;;;;;21.20;11.77;;;9.10;51.10;;;;;;5072594;28;20043;-81
2022/03/16 06:47:09;;;;;;;25.92;14.57;;;9.10;51.00;;;;;;5072261;28;20032;-82
2022/03/16 06:50:13;;;;;;;22.00;12.40;;;9.20;50.80;;;;;;5071764;28;20044;-81
2022/03/16 06:52:31;;;;;;;29.85;16.63;;;9.30;51.00;;;;;;5082376;28;20130;-81
2022/03/16 06:54:59;;;;;;;31.10;19.08;;;9.40;50.90;;;;;;5075672;28;20027;-75
2022/03/16 06:57:26;;;;;;;33.58;17.77;;;9.50;50.90;;;;;;5091980;28;20513;-81
2022/03/16 06:59:52;;;;;;;31.85;19.02;;;9.60;50.80;;;;;;5086048;28;20032;-79
2022/03/16 07:02:21;;;;;;;33.45;18.48;;;9.70;50.80;;;;;;5092042;28;20494;-82
2022/03/16 07:04:55;;;;;;;37.00;19.20;;;9.80;50.70;;;;;;5092740;28;20044;-82
2022/03/16 07:07:26;;;;;;;32.42;17.88;;;9.90;50.70;;;;;;5064133;28;20081;-75
2022/03/16 07:09:57;;;;;;;36.38;18.45;;;9.90;50.00;;;;;;5071972;28;20032;-76
2022/03/16 07:12:43;;;;;;;33.15;17.25;;;10.00;49.80;;;;;;5072878;28;20032;-81
2022/03/16 07:15:09;;;;;;;31.30;17.27;;;10.20;50.40;;;;;;5072438;28;20037;-75
2022/03/16 07:17:36;;;;;;;31.05;16.38;;;10.30;50.20;;;;;;5062768;28;20043;-82
2022/03/16 07:20:04;;;;;;;;;;;10.50;50.20;;;;;;5091621;28;20087;-75
2022/03/16 07:22:35;;;;;;;26.95;15.35;;;10.60;49.20;;;;;;5091964;28;19977;-75
2022/03/16 07:25:14;;;;;;;30.30;16.45;;;10.80;49.50;;;;;;5091760;28;20067;-75
2022/03/16 07:27:54;;;;;;;30.38;16.13;;;10.90;49.30;;;;;;5091755;28;20042;-82
2022/03/16 07:30:23;;;;;;;26.33;15.68;;;11.20;49.30;;;;;;5091516;28;20114;-75
2022/03/16 07:32:58;;;;;;;27.15;15.32;;;11.30;49.00;;;;;;5091947;28;20224;-82
2022/03/16 07:35:31;;;;;;;31.90;15.65;;;11.50;49.10;;;;;;5092421;28;20123;-75
2022/03/16 07:38:11;;;;;;;36.88;19.35;;;11.70;48.70;;;;;;5081575;28;20040;-82
2022/03/16 07:40:59;;;;;;;36.33;18.35;;;11.80;48.20;;;;;;5090972;28;20067;-75
2022/03/16 07:43:25;;;;;;;32.80;18.58;;;12.10;48.30;;;;;;5073265;28;20032;-81
2022/03/16 07:46:00;;;;;;;36.70;18.88;;;12.30;47.90;;;;;;5070305;28;20036;-82
2022/03/16 07:48:26;;;;;;;39.50;21.83;;;12.50;47.30;;;;;;5078209;28;20396;-82
2022/03/16 07:51:01;;;;;;;23.20;15.00;;;12.70;47.00;;;;;;5091272;28;20427;-75
2022/03/16 07:53:28;;;;;;;17.42;11.18;;;12.90;46.50;;;;;;5090653;28;20032;-75
2022/03/16 07:55:56;;;;;;;24.58;11.63;;;13.10;46.30;;;;;;5070766;28;20040;-75
2022/03/16 07:58:23;;;;;;;12.95;7.97;;;13.40;45.80;;;;;;5071449;28;20078;-75
2022/03/16 08:00:53;;;;;;;14.88;7.43;;;13.70;44.70;;;;;;5054246;28;20056;-83
2022/03/16 08:03:20;;;;;;;11.35;6.72;;;14.00;44.00;;;;;;5072157;28;20025;-83
2022/03/16 08:05:59;;;;;;;17.17;8.02;;;14.30;43.50;;;;;;5073389;28;20489;-82
2022/03/16 08:08:30;;;;;;;16.13;8.13;;;14.60;43.00;;;;;;5092695;28;20078;-82
2022/03/16 08:10:56;;;;;;;12.88;7.43;;;14.90;42.50;;;;;;5094279;28;20124;-75
2022/03/16 08:13:25;;;;;;;18.75;8.50;;;15.40;41.50;;;;;;5094890;28;20038;-75
2022/03/16 08:15:53;;;;;;;23.10;13.45;;;15.70;41.20;;;;;;5095378;28;20463;-83
2022/03/16 08:18:22;;;;;;;17.75;12.63;;;16.00;40.20;;;;;;5078118;28;20043;-82
2022/03/16 08:20:49;;;;;;;14.45;8.27;;;16.40;39.70;;;;;;5077902;28;20043;-82
2022/03/16 08:23:18;;;;;;;19.45;8.75;;;16.70;39.30;;;;;;5073437;28;20036;-82
2022/03/16 08:25:44;;;;;;;16.00;8.63;;;17.20;38.90;;;;;;5074471;28;20048;-75
2022/03/16 08:28:14;;;;;;;13.88;8.00;;;17.50;38.00;;;;;;5074878;28;20390;-75
2022/03/16 08:30:42;;;;;;;17.20;8.68;;;17.80;37.70;;;;;;5074271;28;20033;-73
2022/03/16 08:33:08;;;;;;;16.88;9.98;;;17.90;37.30;;;;;;5088847;28;20074;-75
2022/03/16 08:35:36;;;;;;;;;;;18.30;37.10;;;;;;5095406;28;20463;-80
2022/03/16 08:38:02;;;;;;;16.15;9.80;;;19.00;37.50;;;;;;5078335;28;19923;-75
2022/03/16 08:40:28;;;;;;;;;;;19.00;35.30;;;;;;5095907;28;20040;-79
2022/03/16 08:42:57;;;;;;;16.23;9.23;;;18.80;36.80;;;;;;5069308;28;19940;-81
2022/03/16 08:45:25;;;;;;;15.05;8.10;;;19.20;34.40;;;;;;5073895;28;20068;-74
2022/03/16 08:47:51;;;;;;;17.80;9.48;;;19.90;33.60;;;;;;5057267;28;20047;-75
2022/03/16 08:50:18;;;;;;;15.10;8.23;;;20.30;33.00;;;;;;5104712;28;20085;-74
2022/03/16 08:52:44;;;;;;;19.25;10.32;;;20.60;31.80;;;;;;5093742;28;20047;-75
2022/03/16 08:55:14;;;;;;;;;;;20.60;31.40;;;;;;5094321;28;20062;-80
2022/03/16 08:57:43;;;;;;;16.70;10.60;;;20.80;31.30;;;;;;5094704;28;19916;-73
2022/03/16 09:00:14;;;;;;;17.92;10.93;;;20.80;30.40;;;;;;5094045;28;20032;-80
2022/03/16 09:02:41;;;;;;;17.33;8.98;;;21.10;30.30;;;;;;5080991;28;20032;-76
2022/03/16 09:05:09;;;;;;;18.42;11.10;;;21.10;29.40;;;;;;5085193;28;20652;-81
2022/03/16 09:07:38;;;;;;;15.52;9.52;;;21.40;29.50;;;;;;5093972;28;20069;-74
2022/03/16 09:10:06;;;;;;;18.27;9.95;;;22.10;29.20;;;;;;5093171;28;20040;-75
2022/03/16 09:12:33;;;;;;;18.73;10.65;;;22.50;28.50;;;;;;5073797;28;20051;-75
2022/03/16 09:15:05;;;;;;;17.83;9.55;;;23.20;28.00;;;;;;5074927;28;20036;-75
2022/03/16 09:17:47;;;;;;;17.02;8.93;;;23.70;27.50;;;;;;5073694;28;20061;-76
2022/03/16 09:20:17;;;;;;;19.88;10.93;;;23.70;26.40;;;;;;5084218;28;20118;-73
2022/03/16 09:22:47;;;;;;;16.40;10.20;;;23.90;26.60;;;;;;5073541;28;20032;-75
2022/03/16 09:25:13;;;;;;;20.88;10.60;;;24.00;25.80;;;;;;5073026;28;20366;-81
2022/03/16 09:27:39;;;;;;;21.48;9.85;;;24.40;25.80;;;;;;5073599;28;20435;-80
2022/03/16 09:30:07;;;;;;;16.30;9.40;;;25.00;24.90;;;;;;5089710;28;20047;-76
2022/03/16 09:32:39;;;;;;;15.20;9.40;;;25.50;24.00;;;;;;5093726;28;20043;-83
2022/03/16 09:35:07;;;;;;;16.98;11.18;;;25.80;23.50;;;;;;5076349;28;20040;-73
2022/03/16 09:37:35;;;;;;;17.67;10.82;;;26.10;23.80;;;;;;5076952;28;20510;-75
2022/03/16 09:40:02;;;;;;;15.30;10.52;;;26.00;22.90;;;;;;5080336;28;20116;-76
2022/03/16 09:42:31;;;;;;;21.73;10.98;;;26.00;23.40;;;;;;5091777;28;20498;-76
2022/03/16 09:45:06;;;;;;;16.02;10.90;;;26.60;22.80;;;;;;5093808;28;20086;-75
2022/03/16 09:47:35;;;;;;;19.00;10.93;;;27.30;22.10;;;;;;5090531;28;20131;-76
2022/03/16 09:50:04;;;;;;;16.17;9.90;;;27.60;21.00;;;;;;5063525;28;20119;-73
2022/03/16 09:52:40;;;;;;;18.40;9.63;;;27.40;21.60;;;;;;5093063;28;20119;-73
2022/03/16 09:55:08;;;;;;;21.33;11.63;;;28.00;21.00;;;;;;5093125;28;20047;-79
2022/03/16 09:57:35;;;;;;;18.38;10.52;;;28.00;20.60;;;;;;5076204;28;20051;-74
2022/03/16 10:00:02;;;;;;;17.70;9.93;;;27.90;20.50;;;;;;5075074;28;20054;-78
2022/03/16 10:02:28;;;;;;;17.17;10.75;;;27.60;20.50;;;;;;5092539;28;20076;-81
2022/03/16 10:04:58;;;;;;;17.55;10.02;;;28.10;20.80;;;;;;5108866;28;20040;-74
2022/03/16 10:07:48;;;;;;;15.68;10.10;;;28.40;19.50;;;;;;5064891;28;20039;-74
2022/03/16 10:13:15;;;;;;;19.50;11.70;;;29.90;19.30;;;;;;5074200;28;20054;-74
2022/03/16 10:15:43;;;;;;;17.63;12.07;;;30.50;19.00;;;;;;5072107;28;20082;-79
2022/03/16 10:18:09;;;;;;;17.98;10.55;;;30.90;17.80;;;;;;5084866;28;20373;-78
2022/03/16 10:20:52;;;;;;;17.58;11.73;;;30.80;18.20;;;;;;5092387;28;20040;-74
2022/03/16 10:23:37;;;;;;;17.05;10.70;;;30.70;18.30;;;;;;5092722;28;20032;-76
2022/03/16 10:26:03;;;;;;;17.90;10.80;;;30.70;18.30;;;;;;5085493;28;20028;-79
2022/03/16 10:28:48;;;;;;;16.08;11.20;;;30.60;18.10;;;;;;5072112;28;20047;-82
2022/03/16 10:31:18;;;;;;;17.23;10.60;;;30.70;18.20;;;;;;5073254;28;20558;-81
2022/03/16 10:33:56;;;;;;;16.95;11.52;;;30.80;17.50;;;;;;5072516;28;20467;-75
2022/03/16 10:36:59;;;;;;;15.57;10.38;;;30.80;17.70;;;;;;5081594;28;20519;-79
2022/03/16 10:39:48;;;;;;;18.35;10.10;;;30.80;17.50;;;;;;5073344;28;20032;-76
2022/03/16 10:48:24;;;;;;;17.20;10.77;;;29.20;18.70;;;;;;5092396;28;20043;-80
2022/03/16 10:50:57;;;;;;;14.77;9.80;;;28.30;19.60;;;;;;5091935;28;20464;-76
2022/03/16 10:53:28;;;;;;;17.25;10.18;;;27.90;19.70;;;;;;5092359;28;20393;-80
2022/03/16 10:58:54;;;;;;;14.13;9.02;;;27.90;19.80;;;;;;5072179;28;20096;-82
2022/03/16 11:01:22;;;;;;;18.23;9.18;;;29.50;18.80;;;;;;5071666;28;20082;-80
2022/03/16 11:03:51;;;;;;;14.32;7.95;;;29.80;18.00;;;;;;5072180;28;20031;-81
2022/03/16 11:06:24;;;;;;;13.48;8.55;;;30.00;18.20;;;;;;5090234;28;20032;-76
2022/03/16 11:09:01;;;;;;;15.00;9.32;;;29.80;17.90;;;;;;5074884;28;20055;-79
2022/03/16 11:14:17;;;;;;;13.95;8.27;;;29.10;19.40;;;;;;5091294;28;20412;-76
2022/03/16 11:16:46;;;;;;;11.57;7.05;;;29.60;19.00;;;;;;5090727;28;20043;-80
2022/03/16 11:19:18;;;;;;;12.02;7.68;;;29.10;19.10;;;;;;5073049;28;20028;-79
2022/03/16 11:21:58;;;;;;;16.20;9.65;;;29.10;19.30;;;;;;5090365;28;20111;-76
2022/03/16 11:24:33;;;;;;;14.50;9.18;;;29.20;19.10;;;;;;5075550;28;20396;-75
2022/03/16 11:27:57;;;;;;;17.23;8.98;;;29.30;19.00;;;;;;5073519;28;20056;-77
2022/03/16 11:30:42;;;;;;;15.95;9.82;;;30.10;18.30;;;;;;5072292;28;20569;-81
2022/03/16 11:33:16;;;;;;;14.38;9.40;;;30.00;18.30;;;;;;5071691;28;20055;-77
2022/03/16 11:36:02;;;;;;;15.93;9.60;;;30.00;18.00;;;;;;5077882;28;20119;-76
2022/03/16 11:38:34;;;;;;;15.75;9.70;;;28.40;18.60;;;;;;5093195;28;20401;-81
2022/03/16 11:41:14;;;;;;;16.15;7.53;;;27.60;20.10;;;;;;5091077;28;20032;-76
2022/03/16 11:43:43;;;;;;;14.15;8.13;;;28.20;20.00;;;;;;5074498;28;20075;-81
2022/03/16 11:46:36;;;;;;;14.80;9.10;;;28.50;19.60;;;;;;5081009;28;20047;-76
2022/03/16 11:49:04;;;;;;;15.52;9.70;;;29.60;19.00;;;;;;5075224;28;20041;-75
2022/03/16 11:51:33;;;;;;;14.18;9.50;;;30.00;18.90;;;;;;5086107;28;20036;-81
2022/03/16 11:54:18;;;;;;;14.05;7.93;;;30.30;18.00;;;;;;5090275;28;20033;-76
2022/03/16 11:56:46;;;;;;;13.35;7.00;;;31.00;18.00;;;;;;5074587;28;20040;-80
2022/03/16 11:59:44;;;;;;;13.57;8.32;;;30.80;17.70;;;;;;5075235;28;20115;-81
2022/03/16 12:02:33;;;;;;;13.38;8.27;;;30.10;18.40;;;;;;5074824;28;20032;-81
2022/03/16 12:05:08;;;;;;;15.20;9.18;;;29.20;19.00;;;;;;5075773;28;20444;-76
2022/03/16 12:07:45;;;;;;;16.70;8.75;;;30.00;19.00;;;;;;5073900;28;20424;-76
2022/03/16 12:10:16;;;;;;;13.38;7.38;;;30.60;18.20;;;;;;5074532;28;20415;-81
2022/03/16 12:13:09;;;;;;;11.98;6.80;;;30.70;17.80;;;;;;5075295;28;20066;-81
2022/03/16 12:15:56;;;;;;;13.02;8.07;;;30.60;18.10;;;;;;5074501;28;20504;-80
2022/03/16 12:18:26;;;;;;;12.25;8.05;;;31.20;17.60;;;;;;5075122;28;20036;-80
2022/03/16 12:21:14;;;;;;;13.88;8.25;;;31.00;17.40;;;;;;5078219;28;20112;-81
2022/03/16 12:25:08;;;;;;;14.00;8.10;;;30.80;17.50;;;;;;5077352;28;20052;-81
2022/03/16 12:28:55;;;;;;;12.73;8.05;;;30.00;18.30;;;;;;5095863;28;20542;-75
2022/03/16 12:29:36;;;;;;;11.50;8.05;;;28.80;18.80;;;;;;5094909;28;20039;-76
2022/03/16 12:32:02;;;;;;;21.20;8.95;;;27.40;20.60;;;;;;5089715;28;20021;-76
2022/03/16 12:34:30;;;;;;;16.38;8.23;;;26.50;21.10;;;;;;5058054;28;20032;-80
2022/03/16 12:37:01;;;;;;;12.70;6.93;;;26.40;21.60;;;;;;5085786;28;20396;-75
2022/03/16 12:39:31;;;;;;;12.95;8.80;;;26.20;21.70;;;;;;5053068;28;20547;-76
2022/03/16 12:44:55;;;;;;;13.57;8.02;;;26.50;21.90;;;;;;5035899;28;20052;-80
2022/03/16 12:47:45;;;;;;;14.40;7.72;;;27.10;21.40;;;;;;5018995;28;20044;-76
2022/03/16 12:50:33;;;;;;;11.45;7.20;;;27.10;21.40;;;;;;5052407;28;20033;-76
2022/03/16 12:53:01;;;;;;;13.20;6.85;;;26.20;21.70;;;;;;5035730;28;20049;-78
2022/03/16 12:55:28;;;;;;;13.40;8.85;;;26.30;22.00;;;;;;5052448;28;20114;-76
2022/03/16 12:58:26;;;;;;;13.88;8.60;;;26.00;21.70;;;;;;5052514;28;20037;-75
2022/03/16 13:01:29;;;;;;;11.63;7.50;;;26.50;21.80;;;;;;5019764;28;20505;-76
2022/03/16 13:04:16;;;;;;;15.07;8.50;;;27.20;21.20;;;;;;5052877;28;20098;-80
2022/03/16 13:06:43;;;;;;;16.52;8.27;;;27.40;20.50;;;;;;5051124;28;20036;-80
2022/03/16 13:09:16;;;;;;;15.20;8.40;;;27.80;20.70;;;;;;5052253;28;20521;-76
2022/03/16 13:11:42;;;;;;;13.18;7.60;;;28.00;20.90;;;;;;5094580;28;20476;-75
2022/03/16 13:14:16;;;;;;;13.93;8.18;;;27.80;20.20;;;;;;5093874;28;20055;-76
2022/03/16 13:17:07;;;;;;;14.57;7.40;;;28.00;20.70;;;;;;5084116;28;20029;-81
2022/03/16 13:19:44;;;;;;;14.18;6.70;;;29.30;20.10;;;;;;5073734;28;20044;-81
2022/03/16 13:22:14;;;;;;;19.25;10.10;;;30.30;18.20;;;;;;5085228;28;20071;-81
2022/03/16 13:25:03;;;;;;;16.20;7.38;;;30.80;18.00;;;;;;5074387;28;20566;-80
2022/03/16 13:27:35;;;;;;;21.73;8.55;;;30.10;18.40;;;;;;5073075;28;20081;-77